Time;durP1;ratioP1;P1;durP2;ratioP2;P2;SDS_P1;SDS_P2;PMS_P1;PMS_P2;Temp;Humidity;BMP_temperature;BMP_pressure;BME280_temperature;BME280_humidity;BME280_pressure;Samples;Min_cycle;Max_cycle;Signal;HPM_P1;HPM_P2
2021/04/24 00:00:31;;;;;;;35.45;19.02;;;231.30;1587.20;;;;;;5053456;28;20061;-74
2021/04/24 00:02:56;;;;;;;30.05;19.52;;;231.30;1587.20;;;;;;5053223;28;20020;-74
2021/04/24 00:05:29;;;;;;;36.35;21.45;;;231.30;1561.60;;;;;;5054602;28;20107;-74
2021/04/24 00:08:00;;;;;;;33.30;19.70;;;231.30;1561.60;;;;;;5039602;28;20028;-74
2021/04/24 00:10:28;;;;;;;35.08;20.80;;;231.30;1587.20;;;;;;5054682;28;20025;-74
2021/04/24 00:12:54;;;;;;;31.95;17.83;;;231.30;1587.20;;;;;;5054244;28;20110;-74
2021/04/24 00:15:20;;;;;;;32.70;19.70;;;231.30;1561.60;;;;;;5054218;28;20044;-74
2021/04/24 00:17:46;;;;;;;33.83;20.25;;;231.30;1587.20;;;;;;5054472;28;20021;-74
2021/04/24 00:20:15;;;;;;;27.27;19.40;;;231.20;1587.20;;;;;;5054386;28;20104;-73
2021/04/24 00:22:42;;;;;;;29.35;18.77;;;231.20;1612.80;;;;;;5054306;28;20017;-73
2021/04/24 00:25:09;;;;;;;30.35;18.88;;;231.10;1587.20;;;;;;5054013;28;20029;-74
2021/04/24 00:27:35;;;;;;;32.78;18.58;;;231.10;1612.80;;;;;;5054152;28;20456;-74
2021/04/24 00:30:01;;;;;;;32.05;17.92;;;231.10;1612.80;;;;;;5053720;28;20079;-74
2021/04/24 00:32:27;;;;;;;27.35;16.38;;;231.10;1612.80;;;;;;5054312;28;20029;-74
2021/04/24 00:34:53;;;;;;;28.10;17.88;;;231.00;1612.80;;;;;;5053903;28;20078;-73
2021/04/24 00:37:18;;;;;;;31.73;19.67;;;230.90;1638.40;;;;;;5054062;28;20176;-74
2021/04/24 00:39:44;;;;;;;27.95;18.67;;;230.70;1664.00;;;;;;5053985;28;20047;-74
2021/04/24 00:42:10;;;;;;;29.58;19.67;;;230.50;1689.60;;;;;;5053787;28;20028;-73
2021/04/24 00:44:36;;;;;;;27.33;17.52;;;230.50;1689.60;;;;;;5053833;28;20055;-73
2021/04/24 00:47:02;;;;;;;32.35;19.00;;;230.50;1689.60;;;;;;5053798;28;20060;-74
2021/04/24 00:49:27;;;;;;;27.42;16.17;;;230.40;1689.60;;;;;;5052998;28;20392;-74
2021/04/24 00:51:53;;;;;;;28.33;17.92;;;230.50;1715.20;;;;;;5053600;28;20061;-74
2021/04/24 00:54:19;;;;;;;28.67;18.50;;;230.40;1715.20;;;;;;5053143;28;20025;-74
2021/04/24 00:56:45;;;;;;;36.53;22.80;;;205.70;1740.80;;;;;;5053387;28;20025;-74
2021/04/24 00:59:11;;;;;;;38.05;23.95;;;205.60;1792.00;;;;;;5053866;28;20021;-74
2021/04/24 01:01:37;;;;;;;36.20;23.65;;;205.40;1817.60;;;;;;5053298;28;20021;-74
2021/04/24 01:04:03;;;;;;;36.20;23.55;;;205.20;1843.20;;;;;;5050847;28;20037;-74
2021/04/24 01:06:28;;;;;;;42.00;24.40;;;205.10;1894.40;;;;;;5053527;28;20104;-74
2021/04/24 01:08:54;;;;;;;38.65;24.05;;;205.00;1894.40;;;;;;5051949;28;20198;-73
2021/04/24 01:11:20;;;;;;;38.92;24.10;;;204.90;1920.00;;;;;;5052206;28;20091;-74
2021/04/24 01:13:46;;;;;;;39.40;25.30;;;180.10;1945.60;;;;;;5052021;28;20115;-74
2021/04/24 01:16:11;;;;;;;46.58;26.23;;;180.10;1971.20;;;;;;5053470;28;20029;-74
2021/04/24 01:18:37;;;;;;;41.00;24.45;;;180.00;1971.20;;;;;;5054476;28;20385;-74
2021/04/24 01:21:05;;;;;;;42.63;22.70;;;180.10;1971.20;;;;;;5053014;28;20033;-74
2021/04/24 01:23:33;;;;;;;43.10;23.08;;;180.00;1996.80;;;;;;5051551;28;20028;-75
2021/04/24 01:26:00;;;;;;;35.08;23.13;;;179.90;1996.80;;;;;;5053275;28;20043;-74
2021/04/24 01:28:28;;;;;;;37.83;22.63;;;179.80;2022.40;;;;;;5051571;28;20082;-74
2021/04/24 01:30:54;;;;;;;36.22;23.73;;;179.80;2022.40;;;;;;5051151;28;20060;-74
2021/04/24 01:33:23;;;;;;;32.53;21.17;;;179.80;2022.40;;;;;;5051730;28;20486;-74
2021/04/24 01:35:48;;;;;;;41.53;23.85;;;179.70;2048.00;;;;;;5052824;28;20029;-74
2021/04/24 01:38:15;;;;;;;36.17;22.85;;;179.70;2048.00;;;;;;5042761;28;20079;-74
2021/04/24 01:40:41;;;;;;;40.08;23.48;;;179.70;2048.00;;;;;;5052807;28;20531;-74
2021/04/24 01:43:07;;;;;;;40.95;22.77;;;179.60;2073.60;;;;;;5052671;28;20073;-74
2021/04/24 01:45:34;;;;;;;34.75;21.90;;;179.60;2073.60;;;;;;5051316;28;20099;-74
2021/04/24 01:48:00;;;;;;;34.42;22.27;;;179.60;2073.60;;;;;;5052594;28;20025;-74
2021/04/24 01:50:30;;;;;;;35.13;20.88;;;179.60;2073.60;;;;;;5052540;28;20075;-74
2021/04/24 01:52:58;;;;;;;35.70;20.60;;;179.60;2073.60;;;;;;5052109;28;20092;-74
2021/04/24 01:55:27;;;;;;;36.60;22.05;;;179.70;2073.60;;;;;;5049952;28;20043;-74
2021/04/24 01:57:54;;;;;;;35.25;23.63;;;179.80;2073.60;;;;;;5052514;28;20032;-74
2021/04/24 02:00:33;;;;;;;36.53;20.52;;;179.80;2073.60;;;;;;5050955;28;20053;-74
2021/04/24 02:03:01;;;;;;;39.53;21.23;;;179.90;2048.00;;;;;;5052254;28;20025;-74
2021/04/24 02:05:27;;;;;;;38.40;23.42;;;179.80;2073.60;;;;;;5051091;28;20033;-74
2021/04/24 02:08:00;;;;;;;38.38;23.92;;;179.90;2073.60;;;;;;5050969;28;20430;-74
2021/04/24 02:10:29;;;;;;;44.90;25.30;;;179.80;2073.60;;;;;;5038894;28;20048;-74
2021/04/24 02:12:56;;;;;;;47.05;25.02;;;179.90;2073.60;;;;;;5050995;28;20025;-74
2021/04/24 02:15:22;;;;;;;40.67;27.10;;;179.90;2073.60;;;;;;5051100;28;20036;-74
2021/04/24 02:17:48;;;;;;;48.45;26.98;;;179.90;2073.60;;;;;;5052020;28;20013;-74
2021/04/24 02:20:15;;;;;;;40.25;25.80;;;179.70;2099.20;;;;;;5051882;28;20036;-73
2021/04/24 02:22:42;;;;;;;37.17;25.20;;;179.70;2099.20;;;;;;5052138;28;20017;-74
2021/04/24 02:25:09;;;;;;;36.65;24.55;;;179.70;2099.20;;;;;;5051917;28;20071;-73
2021/04/24 02:27:34;;;;;;;42.17;25.00;;;179.70;2099.20;;;;;;5050625;28;20028;-75
2021/04/24 02:30:00;;;;;;;41.95;25.92;;;179.70;2099.20;;;;;;5049693;28;20472;-74
2021/04/24 02:32:30;;;;;;;40.95;25.00;;;179.70;2099.20;;;;;;5051070;28;20392;-74
2021/04/24 02:34:56;;;;;;;39.13;26.85;;;179.80;2099.20;;;;;;5050003;28;20021;-74
2021/04/24 02:37:22;;;;;;;43.92;26.67;;;179.70;2124.80;;;;;;5050553;28;20075;-74
2021/04/24 02:39:51;;;;;;;39.72;27.00;;;179.50;2124.80;;;;;;5050517;28;20495;-75
2021/04/24 02:42:20;;;;;;;44.85;25.60;;;179.60;2124.80;;;;;;5051711;28;20037;-74
2021/04/24 02:44:46;;;;;;;42.80;25.15;;;179.60;2099.20;;;;;;5051783;28;20043;-75
2021/04/24 02:47:12;;;;;;;43.58;25.33;;;179.60;2099.20;;;;;;5050543;28;20094;-74
2021/04/24 02:49:38;;;;;;;36.15;22.77;;;179.70;2124.80;;;;;;5050448;28;20052;-74
2021/04/24 02:52:05;;;;;;;46.53;28.65;;;179.70;2124.80;;;;;;5051660;28;20022;-73
2021/04/24 02:54:32;;;;;;;39.75;26.88;;;179.60;2124.80;;;;;;5050515;28;20087;-75
2021/04/24 02:56:58;;;;;;;44.15;27.10;;;179.50;2124.80;;;;;;5050492;28;20025;-74
2021/04/24 02:59:24;;;;;;;43.03;26.48;;;179.40;2150.40;;;;;;5050413;28;20093;-74
2021/04/24 03:01:50;;;;;;;45.33;27.10;;;179.30;2150.40;;;;;;5051935;28;20060;-75
2021/04/24 03:04:16;;;;;;;45.55;23.75;;;179.30;2150.40;;;;;;5051500;28;20036;-75
2021/04/24 03:06:43;;;;;;;45.35;25.48;;;179.40;2150.40;;;;;;5051849;28;20036;-74
2021/04/24 03:09:09;;;;;;;45.47;25.88;;;179.50;2124.80;;;;;;5051635;28;20021;-75
2021/04/24 03:11:36;;;;;;;49.90;26.92;;;179.40;2124.80;;;;;;5051087;28;20028;-74
2021/04/24 03:14:04;;;;;;;39.05;26.05;;;179.50;2124.80;;;;;;5051620;28;20100;-74
2021/04/24 03:16:29;;;;;;;42.63;27.10;;;179.40;2124.80;;;;;;5051687;28;20009;-75
2021/04/24 03:18:55;;;;;;;40.67;24.63;;;179.60;2124.80;;;;;;5050500;28;20036;-74
2021/04/24 03:21:25;;;;;;;42.15;24.13;;;179.70;2099.20;;;;;;5049116;28;20037;-74
2021/04/24 03:23:52;;;;;;;42.35;25.58;;;179.80;2073.60;;;;;;5037740;28;20080;-74
2021/04/24 03:26:18;;;;;;;42.50;26.17;;;179.80;2048.00;;;;;;5045033;28;20030;-74
2021/04/24 03:28:45;;;;;;;50.42;25.73;;;179.80;2048.00;;;;;;5042157;28;20112;-74
2021/04/24 03:31:11;;;;;;;42.90;25.52;;;179.80;2022.40;;;;;;5054918;28;20029;-74
2021/04/24 03:33:38;;;;;;;61.05;29.70;;;179.80;2022.40;;;;;;5055343;28;20059;-74
2021/04/24 03:36:05;;;;;;;50.45;30.25;;;179.90;2022.40;;;;;;5053864;28;20021;-74
2021/04/24 03:38:31;;;;;;;41.40;26.45;;;180.00;2022.40;;;;;;5054926;28;20029;-74
2021/04/24 03:40:57;;;;;;;43.03;26.08;;;180.00;1996.80;;;;;;5053905;28;20033;-74
2021/04/24 03:43:23;;;;;;;41.17;25.67;;;180.00;1971.20;;;;;;5044876;28;20495;-74
2021/04/24 03:45:49;;;;;;;42.50;23.80;;;180.00;1945.60;;;;;;5049815;28;20499;-75
2021/04/24 03:48:15;;;;;;;43.60;23.88;;;180.00;1971.20;;;;;;5061997;28;20469;-74
2021/04/24 03:50:41;;;;;;;49.03;23.38;;;180.00;1971.20;;;;;;5055070;28;20066;-75
2021/04/24 03:53:06;;;;;;;36.63;22.60;;;179.90;1971.20;;;;;;5053542;28;20096;-75
2021/04/24 03:55:33;;;;;;;36.85;22.15;;;179.90;1945.60;;;;;;5053572;28;20043;-75
2021/04/24 03:58:00;;;;;;;38.65;21.60;;;180.00;1945.60;;;;;;5054682;28;20145;-75
2021/04/24 04:00:28;;;;;;;38.47;22.33;;;180.10;1945.60;;;;;;5054471;28;20040;-75
2021/04/24 04:02:59;;;;;;;36.33;21.92;;;204.80;1945.60;;;;;;5054692;28;20036;-77
2021/04/24 04:05:28;;;;;;;39.47;23.92;;;204.90;1945.60;;;;;;5053191;28;20017;-75
2021/04/24 04:07:55;;;;;;;36.25;22.83;;;205.00;1920.00;;;;;;5054508;28;20037;-75
2021/04/24 04:10:21;;;;;;;42.58;24.02;;;205.00;1894.40;;;;;;5054298;28;20539;-74
2021/04/24 04:12:48;;;;;;;36.20;22.13;;;205.10;1894.40;;;;;;5047378;28;20117;-75
2021/04/24 04:15:16;;;;;;;39.33;23.77;;;205.20;1894.40;;;;;;5060890;28;20075;-75
2021/04/24 04:17:53;;;;;;;38.08;21.63;;;205.30;1894.40;;;;;;5047456;28;20021;-75
2021/04/24 04:20:18;;;;;;;36.08;23.40;;;205.30;1868.80;;;;;;5046543;28;20028;-75
2021/04/24 04:22:44;;;;;;;35.97;22.67;;;205.20;1894.40;;;;;;5052978;28;20036;-75
2021/04/24 04:25:11;;;;;;;42.45;21.83;;;205.20;1894.40;;;;;;5045218;28;20025;-75
2021/04/24 04:27:36;;;;;;;33.17;22.45;;;205.30;1894.40;;;;;;5049769;28;20067;-75
2021/04/24 04:30:05;;;;;;;40.08;21.80;;;205.40;1894.40;;;;;;5051133;28;20492;-74
2021/04/24 04:32:31;;;;;;;39.88;22.48;;;205.50;1894.40;;;;;;5052638;28;20567;-75
2021/04/24 04:34:57;;;;;;;37.95;20.85;;;205.60;1843.20;;;;;;5051957;28;20116;-74
2021/04/24 04:37:23;;;;;;;40.63;23.33;;;205.70;1843.20;;;;;;5045606;28;20026;-74
2021/04/24 04:39:48;;;;;;;36.85;20.88;;;205.70;1817.60;;;;;;5051546;28;20102;-75
2021/04/24 04:42:15;;;;;;;35.72;22.60;;;230.40;1843.20;;;;;;5046365;28;20529;-74
2021/04/24 04:44:40;;;;;;;35.67;21.23;;;230.50;1817.60;;;;;;5043661;28;20523;-75
2021/04/24 04:47:06;;;;;;;36.33;21.27;;;230.60;1817.60;;;;;;5046704;28;20128;-74
2021/04/24 04:49:32;;;;;;;37.75;20.60;;;230.70;1792.00;;;;;;5043712;28;20037;-74
2021/04/24 04:51:57;;;;;;;40.72;21.05;;;230.80;1792.00;;;;;;5044294;28;20033;-74
2021/04/24 04:54:23;;;;;;;28.85;20.48;;;230.90;1792.00;;;;;;5048905;28;20059;-75
2021/04/24 04:56:49;;;;;;;36.78;19.92;;;230.90;1766.40;;;;;;5051976;28;20082;-75
2021/04/24 04:59:14;;;;;;;33.53;21.30;;;231.10;1766.40;;;;;;5053453;28;20565;-75
2021/04/24 05:01:40;;;;;;;37.30;21.45;;;231.20;1740.80;;;;;;5052479;28;20021;-75
2021/04/24 05:04:06;;;;;;;32.72;19.65;;;231.20;1715.20;;;;;;5052267;28;20085;-75
2021/04/24 05:06:32;;;;;;;31.35;19.27;;;231.20;1715.20;;;;;;5053479;28;20035;-75
2021/04/24 05:08:57;;;;;;;33.20;19.25;;;231.20;1689.60;;;;;;5051970;28;20032;-75
2021/04/24 05:11:23;;;;;;;30.80;17.75;;;256.00;1689.60;;;;;;5051832;28;20028;-74
2021/04/24 05:13:49;;;;;;;28.45;18.50;;;256.10;1664.00;;;;;;5053548;28;20025;-74
2021/04/24 05:16:14;;;;;;;28.02;18.27;;;256.20;1638.40;;;;;;5051475;28;20025;-74
2021/04/24 05:18:40;;;;;;;27.05;16.73;;;256.30;1638.40;;;;;;5053297;28;20049;-74
2021/04/24 05:21:06;;;;;;;30.02;18.38;;;256.30;1612.80;;;;;;5052247;28;20025;-74
2021/04/24 05:23:32;;;;;;;29.98;17.88;;;256.50;1612.80;;;;;;5052101;28;20480;-74
2021/04/24 05:25:58;;;;;;;31.15;19.20;;;256.60;1587.20;;;;;;5051416;28;20075;-74
2021/04/24 05:28:23;;;;;;;27.38;17.00;;;256.80;1612.80;;;;;;5050744;28;20472;-74
2021/04/24 05:30:49;;;;;;;25.25;17.25;;;281.60;1612.80;;;;;;5052183;28;20472;-74
2021/04/24 05:33:15;;;;;;;26.08;18.02;;;281.80;1587.20;;;;;;5052980;28;20489;-74
2021/04/24 05:35:41;;;;;;;28.80;17.15;;;281.80;1587.20;;;;;;5047854;28;20037;-74
2021/04/24 05:38:07;;;;;;;31.17;18.17;;;281.80;1587.20;;;;;;5048630;28;20108;-74
2021/04/24 05:40:33;;;;;;;28.98;17.15;;;282.00;1612.80;;;;;;5053694;28;20056;-75
2021/04/24 05:42:59;;;;;;;27.63;18.42;;;282.10;1612.80;;;;;;5041803;28;20373;-74
2021/04/24 05:45:25;;;;;;;32.17;17.52;;;282.30;1587.20;;;;;;5056634;28;20086;-75
2021/04/24 05:47:52;;;;;;;29.05;18.63;;;282.40;1587.20;;;;;;5052616;28;20025;-75
2021/04/24 05:50:20;;;;;;;34.67;20.98;;;282.40;1587.20;;;;;;5052679;28;20028;-75
2021/04/24 05:52:46;;;;;;;28.98;17.30;;;307.30;1612.80;;;;;;5049917;28;20021;-75
2021/04/24 05:55:14;;;;;;;23.88;16.05;;;307.40;1587.20;;;;;;5050575;28;20048;-75
2021/04/24 05:57:40;;;;;;;21.33;14.48;;;307.50;1536.00;;;;;;5050418;28;20392;-74
2021/04/24 06:00:12;;;;;;;23.63;14.85;;;307.70;1510.40;;;;;;5048677;28;20025;-74
2021/04/24 06:02:38;;;;;;;20.55;13.68;;;307.90;1433.60;;;;;;5041659;28;20090;-74
2021/04/24 06:05:06;;;;;;;19.30;12.63;;;308.00;1459.20;;;;;;5047887;28;20108;-75
2021/04/24 06:07:31;;;;;;;21.15;13.18;;;308.10;1433.60;;;;;;5050517;28;20025;-75
2021/04/24 06:09:57;;;;;;;20.35;12.55;;;332.80;1459.20;;;;;;5046294;28;20030;-75
2021/04/24 06:12:23;;;;;;;19.30;12.75;;;332.90;1484.80;;;;;;5059330;28;20025;-75
2021/04/24 06:14:49;;;;;;;16.25;10.85;;;333.20;1459.20;;;;;;5045745;28;20136;-74
2021/04/24 06:17:14;;;;;;;17.77;12.57;;;333.30;1433.60;;;;;;5060072;28;20040;-75
2021/04/24 06:19:40;;;;;;;12.68;8.85;;;333.40;1433.60;;;;;;5049109;28;20095;-75
2021/04/24 06:22:06;;;;;;;19.20;11.10;;;333.60;1331.20;;;;;;5050929;28;20028;-75
2021/04/24 06:24:31;;;;;;;23.00;12.27;;;333.70;1331.20;;;;;;5047777;28;20033;-75
2021/04/24 06:26:57;;;;;;;14.13;9.52;;;358.40;1331.20;;;;;;5039655;28;20064;-75
2021/04/24 06:29:23;;;;;;;16.40;10.10;;;358.50;1331.20;;;;;;5051408;28;20036;-75
2021/04/24 06:31:48;;;;;;;16.20;9.32;;;358.60;1305.60;;;;;;5036677;28;20025;-75
2021/04/24 06:34:14;;;;;;;16.73;10.27;;;358.60;1305.60;;;;;;5052327;28;20083;-75
2021/04/24 06:36:40;;;;;;;18.85;9.30;;;358.60;1305.60;;;;;;5051932;28;20287;-75
2021/04/24 06:39:06;;;;;;;21.05;9.93;;;358.70;1305.60;;;;;;5050858;28;20025;-75
2021/04/24 06:41:33;;;;;;;13.05;9.18;;;358.80;1305.60;;;;;;5051812;28;20595;-75
2021/04/24 06:43:59;;;;;;;13.60;9.63;;;358.90;1280.00;;;;;;5050884;28;20075;-75
2021/04/24 06:46:25;;;;;;;13.82;9.43;;;359.10;1254.40;;;;;;5049882;28;20028;-75
2021/04/24 06:48:51;;;;;;;13.88;8.90;;;359.20;1254.40;;;;;;5051608;28;20033;-75
2021/04/24 06:51:17;;;;;;;18.73;9.73;;;384.00;1228.80;;;;;;5051887;28;20013;-75
2021/04/24 06:53:42;;;;;;;15.80;9.38;;;384.20;1203.20;;;;;;5050935;28;20738;-75
2021/04/24 06:56:08;;;;;;;15.75;9.30;;;384.30;1228.80;;;;;;5051137;28;20397;-75
2021/04/24 06:58:34;;;;;;;12.40;8.20;;;384.30;1228.80;;;;;;5052655;28;20480;-75
2021/04/24 07:01:00;;;;;;;12.68;8.38;;;384.40;1203.20;;;;;;5048064;28;20029;-75
2021/04/24 07:03:25;;;;;;;14.35;8.38;;;384.60;1203.20;;;;;;5052607;28;20031;-75
2021/04/24 07:05:52;;;;;;;11.43;8.85;;;384.70;1177.60;;;;;;5053209;28;20029;-75
2021/04/24 07:08:18;;;;;;;14.68;9.40;;;384.90;1152.00;;;;;;5055623;28;20025;-74
2021/04/24 07:10:44;;;;;;;14.13;10.20;;;409.60;1203.20;;;;;;5047771;28;20026;-75
2021/04/24 07:13:10;;;;;;;14.95;9.30;;;409.80;1177.60;;;;;;5050628;28;20017;-76
2021/04/24 07:15:36;;;;;;;14.75;9.02;;;409.80;1177.60;;;;;;5054803;28;20025;-75
2021/04/24 07:18:02;;;;;;;16.77;10.55;;;410.00;1177.60;;;;;;5047599;28;20032;-75
2021/04/24 07:20:28;;;;;;;14.93;9.18;;;409.90;1177.60;;;;;;5048008;28;20072;-74
2021/04/24 07:22:54;;;;;;;14.20;8.95;;;410.40;1152.00;;;;;;5059962;28;20025;-75
2021/04/24 07:25:20;;;;;;;18.42;9.77;;;410.30;1152.00;;;;;;5050129;28;20025;-74
2021/04/24 07:27:46;;;;;;;13.68;9.27;;;410.40;1152.00;;;;;;5047276;28;20036;-74
2021/04/24 07:30:12;;;;;;;16.42;9.15;;;410.30;1152.00;;;;;;5047998;28;20044;-75
2021/04/24 07:32:38;;;;;;;13.15;9.85;;;435.20;1126.40;;;;;;5051345;28;20120;-74
2021/04/24 07:35:06;;;;;;;21.15;10.90;;;435.90;1100.80;;;;;;5049967;28;20404;-75
2021/04/24 07:37:31;;;;;;;16.63;10.85;;;435.70;1126.40;;;;;;5043482;28;20022;-74
2021/04/24 07:39:57;;;;;;;15.95;10.45;;;435.80;1100.80;;;;;;5045382;28;20088;-75
2021/04/24 07:42:23;;;;;;;13.25;9.85;;;436.00;1075.20;;;;;;5043548;28;20392;-76
2021/04/24 07:44:49;;;;;;;13.75;9.55;;;436.00;1049.60;;;;;;5046927;28;20034;-75
2021/04/24 07:47:15;;;;;;;19.77;11.40;;;436.10;1075.20;;;;;;5056917;28;20127;-76
2021/04/24 07:49:41;;;;;;;17.98;9.52;;;460.80;1126.40;;;;;;5045424;28;20545;-75
2021/04/24 07:52:08;;;;;;;12.02;8.80;;;460.90;1075.20;;;;;;5043338;28;20041;-75
2021/04/24 07:54:42;;;;;;;14.70;8.80;;;461.60;1024.00;;;;;;5064297;28;20083;-75
2021/04/24 07:57:09;;;;;;;14.82;10.25;;;486.40;998.40;;;;;;5049065;28;20025;-75
2021/04/24 07:59:35;;;;;;;13.98;10.18;;;486.40;998.40;;;;;;5048636;28;20041;-75
2021/04/24 08:02:01;;;;;;;12.93;9.38;;;486.60;998.40;;;;;;5051512;28;20021;-75
2021/04/24 08:04:27;;;;;;;13.93;8.35;;;486.60;1024.00;;;;;;5062876;28;20530;-74
2021/04/24 08:06:52;;;;;;;15.80;8.75;;;486.80;972.80;;;;;;5052190;28;20033;-74
2021/04/24 08:09:18;;;;;;;14.77;8.98;;;487.00;972.80;;;;;;5044356;28;20221;-75
2021/04/24 08:11:44;;;;;;;11.88;8.38;;;487.10;972.80;;;;;;5043193;28;20021;-75
2021/04/24 08:14:10;;;;;;;16.75;8.60;;;487.20;972.80;;;;;;5046734;28;20022;-75
2021/04/24 08:16:36;;;;;;;19.15;9.52;;;486.90;947.20;;;;;;5059769;28;20544;-75
2021/04/24 08:19:01;;;;;;;12.48;8.23;;;487.00;947.20;;;;;;5038526;28;20029;-76
2021/04/24 08:21:29;;;;;;;16.77;8.45;;;487.00;947.20;;;;;;5047389;28;20100;-76
2021/04/24 08:23:59;;;;;;;12.57;8.00;;;487.30;921.60;;;;;;5049970;28;20029;-76
2021/04/24 08:26:30;;;;;;;11.60;7.85;;;512.20;870.40;;;;;;5044076;28;20404;-76
2021/04/24 08:28:56;;;;;;;12.30;8.52;;;512.60;870.40;;;;;;5040498;28;20074;-76
2021/04/24 08:31:22;;;;;;;12.75;8.77;;;512.60;844.80;;;;;;5060382;28;20113;-80
2021/04/24 08:33:48;;;;;;;14.55;8.07;;;512.80;819.20;;;;;;5045002;28;20029;-76
2021/04/24 08:36:14;;;;;;;15.70;8.00;;;512.60;844.80;;;;;;5045154;28;20083;-75
2021/04/24 08:38:39;;;;;;;14.68;8.95;;;512.90;819.20;;;;;;5042950;28;20037;-76
2021/04/24 08:41:06;;;;;;;17.08;9.10;;;512.80;819.20;;;;;;5047161;28;20044;-76
2021/04/24 08:43:39;;;;;;;13.43;8.35;;;512.40;870.40;;;;;;5048500;28;20060;-76
2021/04/24 08:46:05;;;;;;;14.40;9.23;;;512.00;896.00;;;;;;5044733;28;20033;-76
2021/04/24 08:48:33;;;;;;;16.67;8.75;;;512.20;870.40;;;;;;5050838;28;20397;-76
2021/04/24 08:50:59;;;;;;;19.60;11.63;;;512.30;844.80;;;;;;5051235;28;20107;-76
2021/04/24 08:53:26;;;;;;;14.07;8.65;;;512.30;870.40;;;;;;5046388;28;20542;-76
2021/04/24 08:55:52;;;;;;;14.00;9.25;;;512.30;844.80;;;;;;5045983;28;20040;-76
2021/04/24 08:58:18;;;;;;;13.98;10.85;;;512.40;870.40;;;;;;5061405;28;20112;-76
2021/04/24 09:00:46;;;;;;;13.57;9.02;;;512.40;870.40;;;;;;5061529;28;20441;-76
2021/04/24 09:03:16;;;;;;;14.13;8.20;;;512.60;844.80;;;;;;5051878;28;20044;-76
2021/04/24 09:05:42;;;;;;;12.88;9.35;;;512.90;844.80;;;;;;5051881;28;20068;-75
2021/04/24 09:08:09;;;;;;;18.45;9.93;;;537.60;870.40;;;;;;5051889;28;20036;-76
2021/04/24 09:10:44;;;;;;;16.58;8.32;;;512.80;870.40;;;;;;5051582;28;20098;-76
2021/04/24 09:13:15;;;;;;;15.00;9.40;;;512.90;844.80;;;;;;5053295;28;20021;-76
2021/04/24 09:15:42;;;;;;;12.68;8.98;;;537.70;870.40;;;;;;5059171;28;20032;-76
2021/04/24 09:18:09;;;;;;;12.15;8.35;;;538.30;819.20;;;;;;5044763;28;20029;-76
2021/04/24 09:20:41;;;;;;;13.15;8.90;;;563.30;844.80;;;;;;5052578;28;20087;-76
2021/04/24 09:23:07;;;;;;;14.40;10.50;;;538.40;844.80;;;;;;5051180;28;20028;-76
2021/04/24 09:25:37;;;;;;;16.05;10.23;;;537.70;870.40;;;;;;5048258;28;20546;-76
2021/04/24 09:28:04;;;;;;;17.15;10.32;;;537.90;870.40;;;;;;5042838;28;20053;-76
2021/04/24 09:30:32;;;;;;;12.82;8.82;;;538.40;819.20;;;;;;5057822;28;20068;-75
2021/04/24 09:33:12;;;;;;;11.52;8.90;;;563.90;819.20;;;;;;5038294;28;20059;-75
2021/04/24 09:35:58;;;;;;;20.45;11.60;;;588.80;819.20;;;;;;5044032;28;20017;-76
2021/04/24 09:38:29;;;;;;;11.30;8.65;;;588.80;819.20;;;;;;5042046;28;20059;-76
2021/04/24 09:41:13;;;;;;;15.85;9.68;;;589.20;793.60;;;;;;5044018;28;20057;-76
2021/04/24 09:43:58;;;;;;;14.10;10.00;;;614.40;742.40;;;;;;5058890;28;20025;-76
2021/04/24 09:46:33;;;;;;;17.17;10.60;;;614.60;742.40;;;;;;5040225;28;20048;-76
2021/04/24 09:49:26;;;;;;;15.45;9.82;;;614.80;716.80;;;;;;5041980;28;20026;-76
2021/04/24 09:51:56;;;;;;;12.07;9.45;;;614.60;716.80;;;;;;5043331;28;20025;-76
2021/04/24 09:54:43;;;;;;;11.50;9.38;;;614.90;716.80;;;;;;5050233;28;20041;-77
2021/04/24 09:57:20;;;;;;;16.92;10.52;;;589.70;716.80;;;;;;5048408;28;20549;-76
2021/04/24 10:00:15;;;;;;;14.73;9.77;;;589.20;793.60;;;;;;5052168;28;20554;-76
2021/04/24 10:02:43;;;;;;;15.18;9.27;;;614.70;742.40;;;;;;5052430;28;20044;-76
2021/04/24 10:05:16;;;;;;;13.45;9.93;;;589.30;742.40;;;;;;5040224;28;20052;-76
2021/04/24 10:07:44;;;;;;;13.18;8.20;;;589.70;742.40;;;;;;5044474;28;20203;-76
2021/04/24 10:10:13;;;;;;;16.27;10.43;;;589.40;742.40;;;;;;5046752;28;20028;-76
2021/04/24 10:12:38;;;;;;;13.07;8.57;;;614.70;742.40;;;;;;5045931;28;20436;-76
2021/04/24 10:15:06;;;;;;;12.63;8.00;;;589.70;742.40;;;;;;5040776;28;20029;-76
2021/04/24 10:17:31;;;;;;;11.88;8.60;;;614.50;716.80;;;;;;5049620;28;20071;-76
2021/04/24 10:20:00;;;;;;;12.32;8.68;;;614.70;716.80;;;;;;5045830;28;20025;-76
2021/04/24 10:22:25;;;;;;;14.00;7.57;;;615.10;691.20;;;;;;5059640;28;20476;-76
2021/04/24 10:24:53;;;;;;;10.40;7.15;;;615.30;665.60;;;;;;5062185;28;20032;-76
2021/04/24 10:27:20;;;;;;;17.25;8.70;;;640.50;665.60;;;;;;5057550;28;20032;-78
2021/04/24 10:29:47;;;;;;;15.55;9.57;;;640.40;691.20;;;;;;5060575;28;20982;-79
2021/04/24 10:32:14;;;;;;;14.05;9.32;;;640.00;691.20;;;;;;5055290;28;20033;-78
2021/04/24 10:34:40;;;;;;;12.93;8.73;;;614.60;691.20;;;;;;5060144;28;20024;-78
2021/04/24 10:37:06;;;;;;;10.07;7.72;;;614.60;691.20;;;;;;5056110;28;20398;-78
2021/04/24 10:39:34;;;;;;;12.55;7.43;;;589.70;716.80;;;;;;5062139;28;20024;-78
2021/04/24 10:42:16;;;;;;;14.38;6.15;;;589.70;665.60;;;;;;5050780;28;20078;-79
2021/04/24 10:44:58;;;;;;;16.58;5.97;;;614.60;640.00;;;;;;5048975;28;20766;-79
2021/04/24 10:47:41;;;;;;;12.60;6.22;;;614.60;665.60;;;;;;5049478;28;20491;-79
2021/04/24 10:50:09;;;;;;;12.68;6.47;;;614.40;640.00;;;;;;5056584;28;20041;-78
2021/04/24 10:52:35;;;;;;;14.00;6.40;;;614.80;665.60;;;;;;5065812;28;20029;-78
2021/04/24 10:55:13;;;;;;;11.85;6.70;;;614.80;640.00;;;;;;5061883;28;20499;-78
2021/04/24 10:57:39;;;;;;;11.00;7.55;;;615.10;614.40;;;;;;5049705;28;20052;-78
2021/04/24 11:00:12;;;;;;;10.90;6.43;;;615.10;614.40;;;;;;5057321;28;20469;-78
2021/04/24 11:02:42;;;;;;;12.52;6.93;;;640.60;614.40;;;;;;5056174;28;20112;-77
2021/04/24 11:05:30;;;;;;;9.95;6.13;;;640.50;588.80;;;;;;5054147;28;20029;-77
2021/04/24 11:08:11;;;;;;;11.20;5.75;;;665.70;588.80;;;;;;5048290;28;20029;-77
2021/04/24 11:10:48;;;;;;;14.38;7.65;;;666.10;588.80;;;;;;5053443;28;20052;-76
2021/04/24 11:13:16;;;;;;;9.20;5.47;;;666.50;563.20;;;;;;5048108;28;20025;-78
2021/04/24 11:15:43;;;;;;;10.02;6.40;;;665.80;614.40;;;;;;5051058;28;20025;-76
2021/04/24 11:18:12;;;;;;;9.73;5.13;;;666.20;563.20;;;;;;5052765;28;20112;-77
2021/04/24 11:20:49;;;;;;;9.65;5.57;;;665.90;563.20;;;;;;5044947;28;20059;-78
2021/04/24 11:23:33;;;;;;;8.05;4.75;;;640.80;563.20;;;;;;5054781;28;20581;-77
2021/04/24 11:25:59;;;;;;;14.05;6.13;;;665.60;512.00;;;;;;5062004;28;20415;-78
2021/04/24 11:28:26;;;;;;;6.38;4.75;;;640.70;537.60;;;;;;5056513;28;20039;-78
2021/04/24 11:31:06;;;;;;;10.13;5.55;;;640.70;537.60;;;;;;5057087;28;20035;-77
2021/04/24 11:33:45;;;;;;;8.52;6.05;;;666.20;537.60;;;;;;5060545;28;20025;-77
2021/04/24 11:36:18;;;;;;;10.63;5.68;;;666.40;537.60;;;;;;5056487;28;20059;-77
2021/04/24 11:38:56;;;;;;;7.55;5.35;;;666.30;537.60;;;;;;5054699;28;20022;-77
2021/04/24 11:41:42;;;;;;;8.27;6.25;;;665.80;537.60;;;;;;5061975;28;20502;-77
2021/04/24 11:46:45;;;;;;;10.88;6.00;;;640.70;537.60;;;;;;5046938;28;20021;-76
2021/04/24 11:49:15;;;;;;;8.23;5.75;;;665.60;563.20;;;;;;5051482;28;20079;-77
2021/04/24 11:51:43;;;;;;;8.40;5.32;;;666.20;537.60;;;;;;5050952;28;20025;-76
2021/04/24 11:54:20;;;;;;;7.80;6.22;;;665.70;563.20;;;;;;5043727;28;20025;-78
2021/04/24 11:56:47;;;;;;;7.28;5.88;;;666.10;563.20;;;;;;5052312;28;20061;-78
2021/04/24 11:59:20;;;;;;;9.05;6.40;;;665.80;537.60;;;;;;5048950;28;20022;-77
2021/04/24 12:01:46;;;;;;;9.18;5.43;;;666.20;512.00;;;;;;5054396;28;20403;-76
2021/04/24 12:04:34;;;;;;;8.25;4.93;;;691.70;512.00;;;;;;5044422;28;20120;-77
2021/04/24 12:07:01;;;;;;;8.30;4.82;;;691.80;512.00;;;;;;5059059;28;20022;-78
2021/04/24 12:09:27;;;;;;;8.55;5.13;;;666.40;537.60;;;;;;5049237;28;20083;-76
2021/04/24 12:11:59;;;;;;;6.90;4.65;;;665.90;537.60;;;;;;5045717;28;20428;-80